createdAt,value
2018-05-18T00:00:57.947Z,15.42
2018-05-18T00:03:24.236Z,15.34
2018-05-18T00:05:50.533Z,15.17
2018-05-18T00:08:16.865Z,15.00
2018-05-18T00:10:43.164Z,15.20
2018-05-18T00:13:09.497Z,15.60
2018-05-18T00:15:35.805Z,15.81
2018-05-18T00:18:02.083Z,15.95
2018-05-18T00:20:28.382Z,16.01
2018-05-18T00:22:54.670Z,16.21
2018-05-18T00:25:21.003Z,16.18
2018-05-18T00:27:47.290Z,16.08
2018-05-18T00:30:13.620Z,15.91
2018-05-18T00:32:39.928Z,16.10
2018-05-18T00:35:06.231Z,15.91
2018-05-18T00:37:32.526Z,16.07
2018-05-18T00:39:58.823Z,16.07
2018-05-18T00:42:25.116Z,16.13
2018-05-18T00:44:51.451Z,16.09
2018-05-18T00:47:17.747Z,16.06
2018-05-18T00:49:44.043Z,16.28
2018-05-18T00:52:10.336Z,16.40
2018-05-18T00:54:36.629Z,16.14
2018-05-18T00:57:02.957Z,15.85
2018-05-18T00:59:29.214Z,15.37
2018-05-18T01:01:55.503Z,15.26
2018-05-18T01:04:21.818Z,15.12
2018-05-18T01:06:48.088Z,15.16
2018-05-18T01:09:14.390Z,15.15
2018-05-18T01:11:40.668Z,15.13
2018-05-18T01:14:06.961Z,15.24
2018-05-18T01:16:33.252Z,15.15
2018-05-18T01:18:59.548Z,15.37
2018-05-18T01:21:25.839Z,15.24
2018-05-18T01:23:52.128Z,15.42
2018-05-18T01:26:18.457Z,15.29
2018-05-18T01:28:44.743Z,14.98
2018-05-18T01:31:11.108Z,14.81
2018-05-18T01:33:37.375Z,14.71
2018-05-18T01:36:03.667Z,14.80
2018-05-18T01:38:29.953Z,14.74
2018-05-18T01:40:56.284Z,14.70
2018-05-18T01:43:22.577Z,14.56
2018-05-18T01:45:48.870Z,14.47
2018-05-18T01:48:15.171Z,14.65
2018-05-18T01:50:41.467Z,14.55
2018-05-18T01:53:07.782Z,14.44
2018-05-18T01:55:34.082Z,14.34
2018-05-18T01:58:00.428Z,14.19
2018-05-18T02:00:26.734Z,14.07
2018-05-18T02:02:53.038Z,14.42
2018-05-18T02:05:19.334Z,14.65
2018-05-18T02:07:45.630Z,14.53
2018-05-18T02:10:11.926Z,14.20
2018-05-18T02:12:38.216Z,14.06
2018-05-18T02:15:04.515Z,13.95
2018-05-18T02:17:30.839Z,14.00
2018-05-18T02:19:57.127Z,14.24
2018-05-18T02:22:23.416Z,14.55
2018-05-18T02:24:49.704Z,14.36
2018-05-18T02:27:16.017Z,14.53
2018-05-18T02:29:42.309Z,14.25
2018-05-18T02:32:08.596Z,14.17
2018-05-18T02:34:34.892Z,14.37
2018-05-18T02:37:01.182Z,14.72
2018-05-18T02:39:27.476Z,14.66
2018-05-18T02:41:53.760Z,14.49
2018-05-18T02:44:20.108Z,14.04
2018-05-18T02:46:46.408Z,13.75
2018-05-18T02:49:12.698Z,13.84
2018-05-18T02:51:38.988Z,14.07
2018-05-18T02:54:05.272Z,13.89
2018-05-18T02:56:31.564Z,13.77
2018-05-18T02:58:57.860Z,13.70
2018-05-18T03:01:24.154Z,13.73
2018-05-18T03:03:50.481Z,13.72
2018-05-18T03:06:16.783Z,13.73
2018-05-18T03:08:43.079Z,13.65
2018-05-18T03:11:09.383Z,13.59
2018-05-18T03:13:35.678Z,13.57
2018-05-18T03:16:02.011Z,13.94
2018-05-18T03:18:28.302Z,14.02
2018-05-18T03:20:54.656Z,14.00
2018-05-18T03:23:20.990Z,14.03
2018-05-18T03:25:47.280Z,13.91
2018-05-18T03:28:13.580Z,13.91
2018-05-18T03:30:39.875Z,14.06
2018-05-18T03:33:06.203Z,14.32
2018-05-18T03:35:32.490Z,14.49
2018-05-18T03:37:58.779Z,14.65
2018-05-18T03:40:25.069Z,14.76
2018-05-18T03:42:51.403Z,14.82
2018-05-18T03:45:17.695Z,15.05
2018-05-18T03:47:44.001Z,15.18
2018-05-18T03:50:10.361Z,15.11
2018-05-18T03:52:36.657Z,14.97
2018-05-18T03:55:02.986Z,15.06
2018-05-18T03:57:29.278Z,14.88
2018-05-18T03:59:55.591Z,14.85
2018-05-18T04:02:21.885Z,14.67
2018-05-18T04:04:48.181Z,14.73
2018-05-18T04:07:14.512Z,15.02
2018-05-18T04:09:40.803Z,14.91
2018-05-18T04:12:07.097Z,15.21
2018-05-18T04:14:33.392Z,15.19
2018-05-18T04:16:59.720Z,15.13
2018-05-18T04:19:26.055Z,15.44
2018-05-18T04:21:52.378Z,15.48
2018-05-18T04:24:18.664Z,15.32
2018-05-18T04:26:44.992Z,15.08
2018-05-18T04:29:11.286Z,15.10
2018-05-18T04:31:37.687Z,15.53
2018-05-18T04:34:03.907Z,15.71
2018-05-18T04:36:30.194Z,16.04
2018-05-18T04:38:56.488Z,16.15
2018-05-18T04:41:22.826Z,16.30
2018-05-18T04:43:49.111Z,16.04
2018-05-18T04:46:15.439Z,16.17
2018-05-18T04:48:41.728Z,16.57
2018-05-18T04:51:08.055Z,16.77
2018-05-18T04:53:34.403Z,17.46
2018-05-18T04:56:00.696Z,18.03
2018-05-18T04:58:27.047Z,18.43
2018-05-18T05:00:53.371Z,18.87
2018-05-18T05:03:19.660Z,17.82
2018-05-18T05:05:45.951Z,18.11
2018-05-18T05:08:12.247Z,17.79
2018-05-18T05:10:38.540Z,18.28
2018-05-18T05:13:04.838Z,17.63
2018-05-18T05:15:31.164Z,18.51
2018-05-18T05:17:57.516Z,21.22
2018-05-18T05:20:23.795Z,21.48
2018-05-18T05:22:50.128Z,21.83
2018-05-18T05:25:16.424Z,19.97
2018-05-18T05:27:42.747Z,21.66
2018-05-18T05:30:09.040Z,23.14
2018-05-18T05:32:35.340Z,23.16
2018-05-18T05:35:01.629Z,23.53
2018-05-18T05:37:27.919Z,23.56
2018-05-18T05:39:54.210Z,22.87
2018-05-18T05:42:20.495Z,23.70
2018-05-18T05:44:46.833Z,24.47
2018-05-18T05:47:13.118Z,24.86
2018-05-18T05:49:39.426Z,25.24
2018-05-18T05:52:05.715Z,23.41
2018-05-18T05:54:32.013Z,22.85
2018-05-18T05:56:58.309Z,23.27
2018-05-18T05:59:24.596Z,24.15
2018-05-18T06:01:50.895Z,24.74
2018-05-18T06:04:17.184Z,24.70
2018-05-18T06:06:43.515Z,24.38
2018-05-18T06:09:09.852Z,24.68
2018-05-18T06:11:36.143Z,25.12
2018-05-18T06:14:02.448Z,24.99
2018-05-18T06:16:28.739Z,24.65
2018-05-18T06:18:55.102Z,24.34
2018-05-18T06:21:21.336Z,23.90
2018-05-18T06:23:47.624Z,24.50
2018-05-18T06:26:13.980Z,24.20
2018-05-18T06:28:40.326Z,24.37
2018-05-18T06:31:06.616Z,25.07
2018-05-18T06:33:32.975Z,25.22
2018-05-18T06:35:59.206Z,24.66
2018-05-18T06:38:25.504Z,24.71
2018-05-18T06:40:51.800Z,24.45
2018-05-18T06:43:18.090Z,24.77
2018-05-18T06:45:44.382Z,25.33
2018-05-18T06:48:10.694Z,24.97
2018-05-18T06:50:36.993Z,25.19
2018-05-18T06:53:03.280Z,25.06
2018-05-18T06:55:29.574Z,25.39
2018-05-18T06:57:55.882Z,25.04
2018-05-18T07:00:22.177Z,25.23
2018-05-18T07:02:48.500Z,25.00
2018-05-18T07:05:14.789Z,24.78
2018-05-18T07:07:41.074Z,25.02
2018-05-18T07:10:07.370Z,26.01
2018-05-18T07:12:33.656Z,25.80
2018-05-18T07:14:59.944Z,24.43
2018-05-18T07:17:26.240Z,23.67
2018-05-18T07:19:52.532Z,24.98
2018-05-18T07:22:18.819Z,25.04
2018-05-18T07:24:45.111Z,24.37
2018-05-18T07:27:11.400Z,24.65
2018-05-18T07:29:37.696Z,24.49
2018-05-18T07:32:03.997Z,24.15
2018-05-18T07:34:30.286Z,24.17
2018-05-18T07:36:56.581Z,24.42
2018-05-18T07:39:22.881Z,24.86
2018-05-18T07:41:49.182Z,25.10
2018-05-18T07:44:15.483Z,25.35
2018-05-18T07:46:41.771Z,25.31
2018-05-18T07:49:08.122Z,24.55
2018-05-18T07:51:34.423Z,24.58
2018-05-18T07:54:00.713Z,24.48
2018-05-18T07:56:27.015Z,24.10
2018-05-18T07:58:53.308Z,24.31
2018-05-18T08:01:19.598Z,24.28
2018-05-18T08:03:45.892Z,24.54
2018-05-18T08:06:12.181Z,24.84
2018-05-18T08:08:38.473Z,24.97
2018-05-18T08:11:04.770Z,25.00
2018-05-18T08:13:31.065Z,24.41
2018-05-18T08:15:57.357Z,25.03
2018-05-18T08:18:23.655Z,25.39
2018-05-18T08:20:49.943Z,25.27
2018-05-18T08:23:16.242Z,25.41
2018-05-18T08:25:42.565Z,25.20
2018-05-18T08:28:08.896Z,24.95
2018-05-18T08:30:35.231Z,25.32
2018-05-18T08:33:01.522Z,25.82
2018-05-18T08:35:27.852Z,25.61
2018-05-18T08:37:54.175Z,25.85
2018-05-18T08:40:20.475Z,25.82
2018-05-18T08:42:46.800Z,25.55
2018-05-18T08:45:13.089Z,25.41
2018-05-18T08:47:39.423Z,25.41
2018-05-18T08:50:05.832Z,25.79
2018-05-18T08:52:32.046Z,25.43
2018-05-18T08:54:58.394Z,25.36
2018-05-18T08:57:24.690Z,25.93
2018-05-18T08:59:50.992Z,26.10
2018-05-18T09:02:17.289Z,26.00
2018-05-18T09:04:43.629Z,25.71
2018-05-18T09:07:09.960Z,25.94
2018-05-18T09:09:36.313Z,26.06
2018-05-18T09:12:02.599Z,25.68
2018-05-18T09:14:28.886Z,26.13
2018-05-18T09:16:55.199Z,27.06
2018-05-18T09:19:21.472Z,27.60
2018-05-18T09:21:47.759Z,26.97
2018-05-18T09:24:14.049Z,26.48
2018-05-18T09:26:40.341Z,27.00
2018-05-18T09:29:06.626Z,27.38
2018-05-18T09:31:32.970Z,27.80
2018-05-18T09:33:59.276Z,27.25
2018-05-18T09:36:25.548Z,27.01
2018-05-18T09:38:51.840Z,26.86
2018-05-18T09:41:18.126Z,27.53
2018-05-18T09:43:44.425Z,27.48
2018-05-18T09:46:10.708Z,27.36
2018-05-18T09:48:37.024Z,27.81
2018-05-18T09:51:03.342Z,27.92
2018-05-18T09:53:29.675Z,27.40
2018-05-18T09:55:55.937Z,27.26
2018-05-18T09:58:22.229Z,27.97
2018-05-18T10:00:48.625Z,27.71
2018-05-18T10:03:14.819Z,27.50
2018-05-18T10:05:41.109Z,27.89
2018-05-18T10:08:07.398Z,27.86
2018-05-18T10:10:33.687Z,27.49
2018-05-18T10:12:59.987Z,28.24
2018-05-18T10:15:26.297Z,28.47
2018-05-18T10:17:52.620Z,28.51
2018-05-18T10:20:18.880Z,27.89
2018-05-18T10:22:45.174Z,27.47
2018-05-18T10:25:11.468Z,27.57
2018-05-18T10:27:37.761Z,26.44
2018-05-18T10:30:04.050Z,27.26
2018-05-18T10:32:30.350Z,25.96
2018-05-18T10:34:56.649Z,25.83
2018-05-18T10:37:22.942Z,25.60
2018-05-18T10:39:49.281Z,26.82
2018-05-18T10:42:15.574Z,27.13
2018-05-18T10:44:41.879Z,26.98
2018-05-18T10:47:08.173Z,27.28
2018-05-18T10:49:34.463Z,27.62
2018-05-18T10:52:00.761Z,27.51
2018-05-18T10:54:27.103Z,27.78
2018-05-18T10:56:53.390Z,28.24
2018-05-18T10:59:19.716Z,28.49
2018-05-18T11:01:45.968Z,28.31
2018-05-18T11:04:12.255Z,27.80
2018-05-18T11:06:38.555Z,27.34
2018-05-18T11:09:04.843Z,27.74
2018-05-18T11:11:31.135Z,26.67
2018-05-18T11:13:57.504Z,27.74
2018-05-18T11:16:23.780Z,29.05
2018-05-18T11:18:50.071Z,28.41
2018-05-18T11:21:16.371Z,27.33
2018-05-18T11:23:42.666Z,27.46
2018-05-18T11:26:08.953Z,27.39
2018-05-18T11:28:35.258Z,28.09
2018-05-18T11:31:01.570Z,28.02
2018-05-18T11:33:27.860Z,28.41
2018-05-18T11:35:54.159Z,28.89
2018-05-18T11:38:20.465Z,28.87
2018-05-18T11:40:46.757Z,29.24
2018-05-18T11:43:13.053Z,29.60
2018-05-18T11:45:39.347Z,29.62
2018-05-18T11:48:05.640Z,28.48
2018-05-18T11:50:31.939Z,27.50
2018-05-18T11:52:58.269Z,26.60
2018-05-18T11:55:24.562Z,26.18
2018-05-18T11:57:50.853Z,26.20
2018-05-18T12:00:19.241Z,25.73
2018-05-18T12:02:43.474Z,25.81
2018-05-18T12:05:09.817Z,25.84
2018-05-18T12:07:36.104Z,26.07
2018-05-18T12:10:02.401Z,26.85
2018-05-18T12:12:28.755Z,27.80
2018-05-18T12:14:55.043Z,27.95
2018-05-18T12:17:21.343Z,27.63
2018-05-18T12:19:47.639Z,28.17
2018-05-18T12:22:13.951Z,27.97
2018-05-18T12:24:40.257Z,27.05
2018-05-18T12:27:06.546Z,27.11
2018-05-18T12:29:32.833Z,27.17
2018-05-18T12:31:59.124Z,27.15
2018-05-18T12:34:25.431Z,27.56
2018-05-18T12:36:51.721Z,27.65
2018-05-18T12:39:18.015Z,27.56
2018-05-18T12:41:44.321Z,27.43
2018-05-18T12:44:10.613Z,27.05
2018-05-18T12:46:36.904Z,27.07
2018-05-18T12:49:03.199Z,26.81
2018-05-18T12:51:29.487Z,26.72
2018-05-18T12:53:55.852Z,27.77
2018-05-18T12:56:22.139Z,29.04
2018-05-18T12:58:48.469Z,30.28
2018-05-18T13:01:14.874Z,29.24
2018-05-18T13:03:41.165Z,28.29
2018-05-18T13:06:07.453Z,28.02
2018-05-18T13:08:33.744Z,27.73
2018-05-18T13:11:00.027Z,27.73
2018-05-18T13:13:26.319Z,27.98
2018-05-18T13:15:52.669Z,27.97
2018-05-18T13:18:18.907Z,28.53
2018-05-18T13:20:45.200Z,28.60
2018-05-18T13:23:11.497Z,28.09
2018-05-18T13:25:37.827Z,27.15
2018-05-18T13:28:04.160Z,26.40
2018-05-18T13:30:30.525Z,26.12
2018-05-18T13:32:56.764Z,26.06
2018-05-18T13:35:23.060Z,26.41
2018-05-18T13:37:49.397Z,26.39
2018-05-18T13:40:15.689Z,26.38
2018-05-18T13:42:42.019Z,25.90
2018-05-18T13:45:08.355Z,25.87
2018-05-18T13:47:34.566Z,25.71
2018-05-18T13:50:00.928Z,25.41
2018-05-18T13:52:27.216Z,25.42
2018-05-18T13:54:53.550Z,25.44
2018-05-18T13:57:19.893Z,25.41
2018-05-18T13:59:46.179Z,25.41
2018-05-18T14:02:12.469Z,25.56
2018-05-18T14:04:38.806Z,25.35
2018-05-18T14:07:05.097Z,25.50
2018-05-18T14:09:31.393Z,25.63
2018-05-18T14:11:57.813Z,25.66
2018-05-18T14:14:24.149Z,25.52
2018-05-18T14:16:50.469Z,25.48
2018-05-18T14:19:16.817Z,25.66
2018-05-18T14:21:43.156Z,25.65
2018-05-18T14:24:09.490Z,25.64
2018-05-18T14:26:35.783Z,25.70
2018-05-18T14:29:02.079Z,25.64
2018-05-18T14:31:28.411Z,25.78
2018-05-18T14:33:54.712Z,25.83
2018-05-18T14:36:20.999Z,25.90
2018-05-18T14:38:47.296Z,25.91
2018-05-18T14:41:13.594Z,25.89
2018-05-18T14:43:39.885Z,26.01
2018-05-18T14:46:06.185Z,26.06
2018-05-18T14:48:32.490Z,26.02
2018-05-18T14:50:58.784Z,25.81
2018-05-18T14:53:25.079Z,25.60
2018-05-18T14:55:51.387Z,25.50
2018-05-18T14:58:17.680Z,25.46
2018-05-18T15:00:43.975Z,25.49
2018-05-18T15:03:10.263Z,25.49
2018-05-18T15:05:36.590Z,25.59
2018-05-18T15:08:02.840Z,25.61
2018-05-18T15:10:29.127Z,25.67
2018-05-18T15:12:55.424Z,25.66
2018-05-18T15:15:21.721Z,25.48
2018-05-18T15:17:48.015Z,25.29
2018-05-18T15:20:14.313Z,25.25
2018-05-18T15:22:40.615Z,25.26
2018-05-18T15:25:06.910Z,25.13
2018-05-18T15:27:33.208Z,25.15
2018-05-18T15:29:59.502Z,25.17
2018-05-18T15:32:25.820Z,25.20
2018-05-18T15:34:52.119Z,25.21
2018-05-18T15:37:18.465Z,25.17
2018-05-18T15:39:44.711Z,25.09
2018-05-18T15:42:11.007Z,25.12
2018-05-18T15:44:37.293Z,25.17
2018-05-18T15:47:03.584Z,25.10
2018-05-18T15:49:29.876Z,25.00
2018-05-18T15:51:56.182Z,24.88
2018-05-18T15:54:22.470Z,24.87
2018-05-18T15:56:48.795Z,24.83
2018-05-18T15:59:15.071Z,24.79
2018-05-18T16:01:41.369Z,24.83
2018-05-18T16:04:07.659Z,24.85
2018-05-18T16:06:33.965Z,24.77
2018-05-18T16:09:00.271Z,24.56
2018-05-18T16:11:26.565Z,24.12
2018-05-18T16:13:52.864Z,23.94
2018-05-18T16:16:19.149Z,23.83
2018-05-18T16:18:45.439Z,23.80
2018-05-18T16:21:11.727Z,23.71
2018-05-18T16:23:38.016Z,23.48
2018-05-18T16:26:04.303Z,23.37
2018-05-18T16:28:30.591Z,23.23
2018-05-18T16:30:56.880Z,23.06
2018-05-18T16:33:23.214Z,22.97
2018-05-18T16:35:49.458Z,22.91
2018-05-18T16:38:15.754Z,22.83
2018-05-18T16:40:42.051Z,22.77
2018-05-18T16:43:08.354Z,22.74
2018-05-18T16:45:34.686Z,22.73
2018-05-18T16:48:00.935Z,22.72
2018-05-18T16:50:27.289Z,22.67
2018-05-18T16:52:53.603Z,22.66
2018-05-18T16:55:19.886Z,22.63
2018-05-18T16:57:46.184Z,22.61
2018-05-18T17:00:12.510Z,22.61
2018-05-18T17:02:38.807Z,22.53
2018-05-18T17:05:05.102Z,22.41
2018-05-18T17:07:31.428Z,22.28
2018-05-18T17:09:57.717Z,22.21
2018-05-18T17:12:24.034Z,22.20
2018-05-18T17:14:50.299Z,22.17
2018-05-18T17:17:16.629Z,22.13
2018-05-18T17:19:42.968Z,22.01
2018-05-18T17:22:09.217Z,21.97
2018-05-18T17:24:35.513Z,21.93
2018-05-18T17:27:01.799Z,21.92
2018-05-18T17:29:28.094Z,21.89
2018-05-18T17:31:54.379Z,21.88
2018-05-18T17:34:20.668Z,21.88
2018-05-18T17:36:46.961Z,21.87
2018-05-18T17:39:13.256Z,21.81
2018-05-18T17:41:39.550Z,21.73
2018-05-18T17:44:05.845Z,21.71
2018-05-18T17:46:32.140Z,21.66
2018-05-18T17:48:58.477Z,21.64
2018-05-18T17:51:24.723Z,21.60
2018-05-18T17:53:51.011Z,21.50
2018-05-18T17:56:17.299Z,21.48
2018-05-18T17:58:43.591Z,21.51
2018-05-18T18:01:09.880Z,21.50
2018-05-18T18:03:36.176Z,21.50
2018-05-18T18:06:02.463Z,21.54
2018-05-18T18:08:28.761Z,21.51
2018-05-18T18:10:55.048Z,21.22
2018-05-18T18:13:21.335Z,21.09
2018-05-18T18:15:47.679Z,21.01
2018-05-18T18:18:13.965Z,20.91
2018-05-18T18:20:40.313Z,20.85
2018-05-18T18:23:06.609Z,20.86
2018-05-18T18:25:32.902Z,20.76
2018-05-18T18:27:59.193Z,20.70
2018-05-18T18:30:25.486Z,20.67
2018-05-18T18:32:51.781Z,20.64
2018-05-18T18:35:18.080Z,20.64
2018-05-18T18:37:44.412Z,20.61
2018-05-18T18:40:10.701Z,20.66
2018-05-18T18:42:37.002Z,20.72
2018-05-18T18:45:03.343Z,20.72
2018-05-18T18:47:29.639Z,20.61
2018-05-18T18:49:55.970Z,20.56
2018-05-18T18:52:22.266Z,20.56
2018-05-18T18:54:48.609Z,20.56
2018-05-18T18:57:14.907Z,20.65
2018-05-18T18:59:41.208Z,20.74
2018-05-18T19:02:07.493Z,20.74
2018-05-18T19:04:33.784Z,20.66
2018-05-18T19:07:00.084Z,20.55
2018-05-18T19:09:26.373Z,20.34
2018-05-18T19:11:52.738Z,20.29
2018-05-18T19:14:19.032Z,20.23
2018-05-18T19:16:45.325Z,20.17
2018-05-18T19:19:11.621Z,20.13
2018-05-18T19:21:37.909Z,20.14
2018-05-18T19:24:04.240Z,20.13
2018-05-18T19:26:30.527Z,20.08
2018-05-18T19:28:56.811Z,20.05
2018-05-18T19:31:23.119Z,20.02
2018-05-18T19:33:49.393Z,20.05
2018-05-18T19:36:15.688Z,20.08
2018-05-18T19:38:41.981Z,20.17
2018-05-18T19:41:08.269Z,20.31
2018-05-18T19:43:34.562Z,20.49
2018-05-18T19:46:00.892Z,20.61
2018-05-18T19:48:27.175Z,20.64
2018-05-18T19:50:53.469Z,20.66
2018-05-18T19:53:19.761Z,20.70
2018-05-18T19:55:46.088Z,20.75
2018-05-18T19:58:12.387Z,20.75
2018-05-18T20:00:38.678Z,20.72
2018-05-18T20:03:04.976Z,20.69
2018-05-18T20:05:31.272Z,20.68
2018-05-18T20:07:57.565Z,20.65
2018-05-18T20:10:23.859Z,20.60
2018-05-18T20:12:50.156Z,20.57
2018-05-18T20:15:16.443Z,20.53
2018-05-18T20:17:42.732Z,20.53
2018-05-18T20:20:09.036Z,20.51
2018-05-18T20:22:35.323Z,20.47
2018-05-18T20:25:01.620Z,20.44
2018-05-18T20:27:27.949Z,20.39
2018-05-18T20:29:54.247Z,20.36
2018-05-18T20:32:20.545Z,20.36
2018-05-18T20:34:46.837Z,20.32
2018-05-18T20:37:13.133Z,20.26
2018-05-18T20:39:39.435Z,20.17
2018-05-18T20:42:05.723Z,20.09
2018-05-18T20:44:32.023Z,20.00
2018-05-18T20:46:58.306Z,19.97
2018-05-18T20:49:24.601Z,19.96
2018-05-18T20:51:50.936Z,19.93
2018-05-18T20:54:17.232Z,19.91
2018-05-18T20:56:43.529Z,19.87
2018-05-18T20:59:09.864Z,19.75
2018-05-18T21:01:36.153Z,19.74
2018-05-18T21:04:02.492Z,19.79
2018-05-18T21:06:28.782Z,19.83
2018-05-18T21:08:55.072Z,19.79
2018-05-18T21:11:21.422Z,19.75
2018-05-18T21:13:47.712Z,19.66
2018-05-18T21:16:14.007Z,19.65
2018-05-18T21:18:40.301Z,19.63
2018-05-18T21:21:06.587Z,19.56
2018-05-18T21:23:32.888Z,19.57
2018-05-18T21:25:59.179Z,19.57
2018-05-18T21:28:25.468Z,19.58
2018-05-18T21:30:51.761Z,19.58
2018-05-18T21:33:18.050Z,19.54
2018-05-18T21:35:44.388Z,19.48
2018-05-18T21:38:10.686Z,19.47
2018-05-18T21:40:36.982Z,19.54
2018-05-18T21:43:03.272Z,19.49
2018-05-18T21:45:29.576Z,19.55
2018-05-18T21:47:55.869Z,19.53
2018-05-18T21:50:22.163Z,19.51
2018-05-18T21:52:48.457Z,19.44
2018-05-18T21:55:14.749Z,19.41
2018-05-18T21:57:41.047Z,19.38
2018-05-18T22:00:07.340Z,19.34
2018-05-18T22:02:33.679Z,19.30
2018-05-18T22:05:00.016Z,19.29
2018-05-18T22:07:26.318Z,19.30
2018-05-18T22:09:52.610Z,19.18
2018-05-18T22:12:18.906Z,19.13
2018-05-18T22:14:45.201Z,19.14
2018-05-18T22:17:11.499Z,19.14
2018-05-18T22:19:37.795Z,19.04
2018-05-18T22:22:04.084Z,18.96
2018-05-18T22:24:30.383Z,18.93
2018-05-18T22:26:56.678Z,18.88
2018-05-18T22:29:22.975Z,18.89
2018-05-18T22:31:49.265Z,18.88
2018-05-18T22:34:15.553Z,18.91
2018-05-18T22:36:41.854Z,18.92
2018-05-18T22:39:08.144Z,18.95
2018-05-18T22:41:34.440Z,19.01
2018-05-18T22:44:00.731Z,19.08
2018-05-18T22:46:27.023Z,19.09
2018-05-18T22:48:53.319Z,19.06
2018-05-18T22:51:19.613Z,19.05
2018-05-18T22:53:45.903Z,19.04
2018-05-18T22:56:12.191Z,19.07
2018-05-18T22:58:38.485Z,19.10
2018-05-18T23:01:04.771Z,18.99
2018-05-18T23:03:31.065Z,18.81
2018-05-18T23:05:57.351Z,18.83
2018-05-18T23:08:23.678Z,18.86
2018-05-18T23:10:49.964Z,18.72
2018-05-18T23:13:16.298Z,18.60
2018-05-18T23:15:42.593Z,18.65
2018-05-18T23:18:08.885Z,18.65
2018-05-18T23:20:35.175Z,18.57
2018-05-18T23:23:01.503Z,18.50
2018-05-18T23:25:27.855Z,18.53
2018-05-18T23:27:54.143Z,18.59
2018-05-18T23:30:20.439Z,18.58
2018-05-18T23:32:46.770Z,18.63
2018-05-18T23:35:13.067Z,18.63
2018-05-18T23:37:39.355Z,18.54
2018-05-18T23:40:05.654Z,18.38
2018-05-18T23:42:31.945Z,18.22
2018-05-18T23:44:58.273Z,18.05
2018-05-18T23:47:24.575Z,17.97
2018-05-18T23:49:50.865Z,17.99
2018-05-18T23:52:17.165Z,18.02
2018-05-18T23:54:43.453Z,18.05
2018-05-18T23:57:09.750Z,18.02
2018-05-18T23:59:36.046Z,17.98
